Time;durP1;ratioP1;P1;durP2;ratioP2;P2;SDS_P1;SDS_P2;PMS_P1;PMS_P2;Temp;Humidity;BMP_temperature;BMP_pressure;BME280_temperature;BME280_humidity;BME280_pressure;Samples;Min_cycle;Max_cycle;Signal;HPM_P1;HPM_P2
2022/01/19 00:00:20;;;;;;;19.42;13.70;;;4.80;99.90;;;;;;2086620;28;20075;-72
2022/01/19 00:01:22;;;;;;;19.75;13.25;;;4.70;99.90;;;;;;2097022;28;20032;-72
2022/01/19 00:02:22;;;;;;;20.40;12.93;;;4.70;99.90;;;;;;2096197;28;20017;-73
2022/01/19 00:03:23;;;;;;;18.27;13.02;;;4.80;99.90;;;;;;2097204;28;20463;-72
2022/01/19 00:04:24;;;;;;;20.55;13.43;;;4.80;99.90;;;;;;2094863;28;20653;-72
2022/01/19 00:05:25;;;;;;;19.65;13.60;;;4.80;99.90;;;;;;2085077;28;20067;-72
2022/01/19 00:06:28;;;;;;;21.92;14.27;;;4.80;99.90;;;;;;2080331;28;20035;-71
2022/01/19 00:07:29;;;;;;;22.30;13.27;;;4.80;99.90;;;;;;2084802;28;20032;-71
2022/01/19 00:08:30;;;;;;;20.95;13.65;;;4.80;99.90;;;;;;2095916;28;20020;-72
2022/01/19 00:09:30;;;;;;;20.15;13.40;;;4.80;99.90;;;;;;2097911;28;20058;-71
2022/01/19 00:10:31;;;;;;;19.65;13.00;;;4.70;99.90;;;;;;2094734;28;20029;-73
2022/01/19 00:11:32;;;;;;;20.27;13.63;;;4.80;99.90;;;;;;2098992;28;20024;-71
2022/01/19 00:12:33;;;;;;;19.58;13.00;;;4.70;99.90;;;;;;2085879;28;20037;-73
2022/01/19 00:13:33;;;;;;;21.63;12.95;;;4.80;99.90;;;;;;2088766;28;20117;-72
2022/01/19 00:14:35;;;;;;;18.52;12.98;;;4.80;99.90;;;;;;2095950;28;20040;-74
2022/01/19 00:15:36;;;;;;;20.58;13.10;;;4.70;99.90;;;;;;2097736;28;20036;-71
2022/01/19 00:16:36;;;;;;;18.77;12.90;;;4.80;99.90;;;;;;2097434;28;20029;-72
2022/01/19 00:17:38;;;;;;;18.48;12.75;;;4.80;99.90;;;;;;2098809;28;20024;-72
2022/01/19 00:18:39;;;;;;;18.58;12.82;;;4.80;99.90;;;;;;2095425;28;20087;-72
2022/01/19 00:19:40;;;;;;;17.92;12.50;;;4.80;99.90;;;;;;2094126;28;20127;-71
2022/01/19 00:20:40;;;;;;;18.05;12.20;;;4.80;99.90;;;;;;2090053;28;20466;-72
2022/01/19 00:21:41;;;;;;;18.35;11.95;;;4.80;99.90;;;;;;2088593;28;20020;-71
2022/01/19 00:22:42;;;;;;;16.88;12.23;;;4.80;99.90;;;;;;2094374;28;20484;-73
2022/01/19 00:23:43;;;;;;;20.00;12.73;;;4.80;99.90;;;;;;2090203;28;20433;-73
2022/01/19 00:24:44;;;;;;;16.92;12.02;;;4.80;99.90;;;;;;2085506;28;20029;-73
2022/01/19 00:25:47;;;;;;;20.08;12.23;;;4.80;99.90;;;;;;2097692;28;20123;-70
2022/01/19 00:26:48;;;;;;;17.80;12.05;;;4.80;99.90;;;;;;2086321;28;20027;-72
2022/01/19 00:27:49;;;;;;;18.98;12.15;;;4.70;99.90;;;;;;2080638;28;20068;-71
2022/01/19 00:28:50;;;;;;;19.38;11.95;;;4.80;99.90;;;;;;2086257;28;20025;-72
2022/01/19 00:29:52;;;;;;;18.77;12.18;;;4.80;99.90;;;;;;2096490;28;20411;-73
2022/01/19 00:30:53;;;;;;;15.70;11.32;;;4.80;99.90;;;;;;2085310;28;20022;-72
2022/01/19 00:31:56;;;;;;;15.40;11.07;;;4.80;99.90;;;;;;2081111;28;20032;-71
2022/01/19 00:32:57;;;;;;;15.85;11.30;;;4.80;99.90;;;;;;2084984;28;20090;-73
2022/01/19 00:33:58;;;;;;;16.55;11.93;;;4.80;99.90;;;;;;2080379;28;20039;-71
2022/01/19 00:35:03;;;;;;;19.52;13.00;;;4.80;99.90;;;;;;2086651;28;20079;-69
2022/01/19 00:36:05;;;;;;;17.60;12.13;;;4.80;99.90;;;;;;2080287;28;20026;-72
2022/01/19 00:37:05;;;;;;;17.17;12.20;;;4.80;99.90;;;;;;2072342;28;20032;-73
2022/01/19 00:38:08;;;;;;;17.75;12.30;;;4.70;99.90;;;;;;2084865;28;20061;-70
2022/01/19 00:39:10;;;;;;;20.05;12.43;;;4.70;99.90;;;;;;2093382;28;20029;-70
2022/01/19 00:40:14;;;;;;;19.48;12.70;;;4.70;99.90;;;;;;2092248;28;20021;-70
2022/01/19 00:41:15;;;;;;;18.70;12.07;;;4.70;99.90;;;;;;2092489;28;20052;-72
2022/01/19 00:42:16;;;;;;;16.70;11.88;;;4.80;99.90;;;;;;2083414;28;20056;-73
2022/01/19 00:43:17;;;;;;;18.90;11.63;;;4.70;99.90;;;;;;2092819;28;20021;-72
2022/01/19 00:44:18;;;;;;;20.60;12.77;;;4.70;99.90;;;;;;2092176;28;20424;-72
2022/01/19 00:45:19;;;;;;;19.52;13.00;;;4.70;99.90;;;;;;2091411;28;20076;-73
2022/01/19 00:46:20;;;;;;;20.45;13.50;;;4.70;99.90;;;;;;2091288;28;20075;-72
2022/01/19 00:47:21;;;;;;;19.23;12.80;;;4.70;99.90;;;;;;2094221;28;20115;-73
2022/01/19 00:48:22;;;;;;;19.20;12.45;;;4.70;99.90;;;;;;2089309;28;20048;-73
2022/01/19 00:49:23;;;;;;;18.15;12.23;;;4.70;99.90;;;;;;2089192;28;20119;-71
2022/01/19 00:50:27;;;;;;;17.88;12.02;;;4.70;99.90;;;;;;2090909;28;20053;-71
2022/01/19 00:51:28;;;;;;;20.20;12.48;;;4.70;99.90;;;;;;2086170;28;20013;-71
2022/01/19 00:52:29;;;;;;;17.58;12.07;;;4.70;99.90;;;;;;2093424;28;20472;-72
2022/01/19 00:53:30;;;;;;;17.13;11.57;;;4.70;99.90;;;;;;2090521;28;20029;-72
2022/01/19 00:54:31;;;;;;;17.80;11.23;;;4.70;99.90;;;;;;2085623;28;20025;-73
2022/01/19 00:55:32;;;;;;;18.60;12.30;;;4.70;99.90;;;;;;2098200;28;20817;-72
2022/01/19 00:56:36;;;;;;;17.15;12.07;;;4.70;99.90;;;;;;2095681;28;20017;-70
2022/01/19 00:57:38;;;;;;;16.08;11.35;;;4.70;99.90;;;;;;2098079;28;20543;-72
2022/01/19 00:58:39;;;;;;;18.15;11.88;;;4.70;99.90;;;;;;2089446;28;20029;-71
2022/01/19 00:59:39;;;;;;;17.17;11.98;;;4.70;99.90;;;;;;2082244;28;20048;-71
2022/01/19 01:00:41;;;;;;;17.15;11.82;;;4.70;99.90;;;;;;2086082;28;20021;-71
2022/01/19 01:01:42;;;;;;;17.45;11.25;;;4.70;99.90;;;;;;2088982;28;20045;-70
2022/01/19 01:02:42;;;;;;;17.27;11.10;;;4.80;99.90;;;;;;2092929;28;20017;-73
2022/01/19 01:03:43;;;;;;;15.75;11.20;;;4.70;99.90;;;;;;2089346;28;20090;-72
2022/01/19 01:04:44;;;;;;;19.13;11.75;;;4.70;99.90;;;;;;2085988;28;20034;-72
2022/01/19 01:05:45;;;;;;;17.48;11.38;;;4.70;99.90;;;;;;2090649;28;20055;-73
2022/01/19 01:06:46;;;;;;;18.60;11.77;;;4.80;99.90;;;;;;2086323;28;20033;-72
2022/01/19 01:07:47;;;;;;;19.33;12.32;;;4.70;99.90;;;;;;2087324;28;20021;-72
2022/01/19 01:08:48;;;;;;;19.42;11.95;;;4.80;99.90;;;;;;2098903;28;20013;-73
2022/01/19 01:09:49;;;;;;;17.83;11.93;;;4.80;99.90;;;;;;2089327;28;20804;-72
2022/01/19 01:10:51;;;;;;;17.67;11.60;;;4.80;99.90;;;;;;2081211;28;20025;-72
2022/01/19 01:12:42;;;;;;;19.02;12.20;;;4.80;99.90;;;;;;2090084;28;20033;-72
2022/01/19 01:13:29;;;;;;;18.38;11.82;;;4.80;99.90;;;;;;2089301;28;20029;-72
2022/01/19 01:16:16;;;;;;;18.92;12.35;;;4.80;99.90;;;;;;2074583;28;20026;-72
2022/01/19 01:18:38;;;;;;;20.75;12.57;;;4.80;99.90;;;;;;2088738;28;20032;-72
2022/01/19 01:19:40;;;;;;;23.98;12.98;;;4.80;99.90;;;;;;2088694;28;20024;-72
2022/01/19 01:20:41;;;;;;;21.20;13.50;;;4.80;99.90;;;;;;2086846;28;20030;-74
2022/01/19 01:21:41;;;;;;;20.17;13.10;;;4.80;99.90;;;;;;2097225;28;20063;-72
2022/01/19 01:22:44;;;;;;;21.05;12.90;;;4.80;99.90;;;;;;2086633;28;20029;-74
2022/01/19 01:23:45;;;;;;;21.75;13.73;;;4.80;99.90;;;;;;2088221;28;20017;-74
2022/01/19 01:24:46;;;;;;;19.35;12.93;;;4.80;99.90;;;;;;2093864;28;20428;-71
2022/01/19 01:25:48;;;;;;;19.42;12.20;;;4.80;99.90;;;;;;2088523;28;20020;-71
2022/01/19 01:26:49;;;;;;;18.40;12.10;;;4.80;99.90;;;;;;2081576;28;20055;-69
2022/01/19 01:27:50;;;;;;;17.42;11.65;;;4.80;99.90;;;;;;2088727;28;20458;-70
2022/01/19 01:28:51;;;;;;;19.70;12.43;;;4.80;99.90;;;;;;2089976;28;20080;-70
2022/01/19 01:29:52;;;;;;;16.58;11.30;;;4.80;99.90;;;;;;2086811;28;20017;-71
2022/01/19 01:30:53;;;;;;;16.98;11.68;;;4.80;99.90;;;;;;2080753;28;20036;-71
2022/01/19 01:31:53;;;;;;;17.75;11.95;;;4.80;99.90;;;;;;2089292;28;20021;-71
2022/01/19 01:32:54;;;;;;;18.20;12.25;;;4.80;99.90;;;;;;2089038;28;20053;-71
2022/01/19 01:33:55;;;;;;;19.48;12.43;;;4.80;99.90;;;;;;2089271;28;20148;-71
2022/01/19 01:34:56;;;;;;;18.77;12.65;;;4.80;99.90;;;;;;2089037;28;20111;-70
2022/01/19 01:35:56;;;;;;;17.20;12.18;;;4.80;99.90;;;;;;2088318;28;20025;-72
2022/01/19 01:36:59;;;;;;;19.63;12.40;;;4.70;99.90;;;;;;2096712;28;20115;-71
2022/01/19 01:38:00;;;;;;;18.75;12.13;;;4.80;99.90;;;;;;2088207;28;20021;-74
2022/01/19 01:39:01;;;;;;;17.95;12.13;;;4.70;99.90;;;;;;2080106;28;20030;-73
2022/01/19 01:40:08;;;;;;;17.85;11.52;;;4.70;99.90;;;;;;2079918;28;20060;-73
2022/01/19 01:41:12;;;;;;;20.95;12.93;;;4.70;99.90;;;;;;2089207;28;20025;-73
2022/01/19 01:42:16;;;;;;;18.50;12.48;;;4.70;99.90;;;;;;2088053;28;20071;-74
2022/01/19 01:43:17;;;;;;;20.15;12.13;;;4.80;99.90;;;;;;2080430;28;20029;-74
2022/01/19 01:44:18;;;;;;;18.65;12.00;;;4.80;99.90;;;;;;2088362;28;20409;-73
2022/01/19 01:45:25;;;;;;;18.48;11.88;;;4.70;99.90;;;;;;2088299;28;20638;-73
2022/01/19 01:46:42;;;;;;;17.73;11.45;;;4.80;99.90;;;;;;2080369;28;20021;-72
2022/01/19 01:47:49;;;;;;;18.45;12.35;;;4.70;99.90;;;;;;2087860;28;20029;-72
2022/01/19 01:48:50;;;;;;;20.15;12.68;;;4.70;99.90;;;;;;2080723;28;20473;-72
2022/01/19 01:53:49;;;;;;;19.25;12.82;;;4.70;99.90;;;;;;2088038;28;20033;-72
2022/01/19 01:54:49;;;;;;;20.55;12.75;;;4.70;99.90;;;;;;2088244;28;20045;-72
2022/01/19 01:55:52;;;;;;;18.83;12.57;;;4.70;99.90;;;;;;2087676;28;20705;-72
2022/01/19 01:56:53;;;;;;;20.80;12.73;;;4.70;99.90;;;;;;2087995;28;20087;-73
2022/01/19 01:57:55;;;;;;;20.15;12.82;;;4.70;99.90;;;;;;2088080;28;20068;-72
2022/01/19 01:59:05;;;;;;;21.83;13.23;;;4.70;99.90;;;;;;2087995;28;20104;-71
2022/01/19 02:00:26;;;;;;;22.27;13.15;;;4.70;99.90;;;;;;2091007;28;20029;-70
2022/01/19 02:01:28;;;;;;;21.00;13.32;;;4.70;99.90;;;;;;2079754;28;20022;-70
2022/01/19 02:02:29;;;;;;;19.15;12.60;;;4.70;99.90;;;;;;2072033;28;20030;-71
2022/01/19 02:03:37;;;;;;;18.63;12.85;;;4.70;99.90;;;;;;2079865;28;20045;-70
2022/01/19 02:04:41;;;;;;;19.17;12.55;;;4.70;99.90;;;;;;2089143;28;20092;-70
2022/01/19 02:05:58;;;;;;;18.95;12.40;;;4.70;99.90;;;;;;2088065;28;20037;-71
2022/01/19 02:08:17;;;;;;;20.40;12.32;;;4.70;99.90;;;;;;2087947;28;20029;-71
2022/01/19 02:09:22;;;;;;;18.70;12.52;;;4.70;99.90;;;;;;2079998;28;20459;-70
2022/01/19 02:22:42;;;;;;;17.15;11.98;;;4.60;99.90;;;;;;2088188;28;20029;-70
2022/01/19 02:23:49;;;;;;;18.42;12.73;;;4.60;99.90;;;;;;2087973;28;20736;-70
2022/01/19 02:24:50;;;;;;;19.67;12.20;;;4.60;99.90;;;;;;2080699;28;20525;-71
2022/01/19 02:25:52;;;;;;;18.92;12.57;;;4.60;99.90;;;;;;2079259;28;20045;-74
2022/01/19 02:27:05;;;;;;;18.33;12.32;;;4.60;99.90;;;;;;2088223;28;20063;-71
2022/01/19 02:31:11;;;;;;;18.95;12.98;;;4.60;99.90;;;;;;2088002;28;20029;-70
2022/01/19 02:36:36;;;;;;;19.85;13.40;;;4.60;99.90;;;;;;2090270;28;20029;-70
2022/01/19 02:40:12;;;;;;;19.40;13.32;;;4.50;99.90;;;;;;2098468;28;20025;-72
2022/01/19 02:41:13;;;;;;;21.10;14.07;;;4.60;99.90;;;;;;2089400;28;20032;-72
2022/01/19 02:42:15;;;;;;;21.08;13.80;;;4.60;99.90;;;;;;2089259;28;20036;-72
2022/01/19 02:43:24;;;;;;;20.10;13.77;;;4.60;99.90;;;;;;2098337;28;20021;-72
2022/01/19 02:46:38;;;;;;;20.65;13.45;;;4.60;99.90;;;;;;2081196;28;20143;-72
2022/01/19 02:49:39;;;;;;;20.42;13.55;;;4.60;99.90;;;;;;2092181;28;20064;-72
2022/01/19 02:50:40;;;;;;;20.58;13.55;;;4.60;99.90;;;;;;2089392;28;20171;-72
2022/01/19 02:51:50;;;;;;;21.05;14.35;;;4.60;99.90;;;;;;2089119;28;20734;-72
2022/01/19 02:52:50;;;;;;;21.60;14.07;;;4.60;99.90;;;;;;2089441;28;20032;-72
2022/01/19 02:53:51;;;;;;;22.17;14.63;;;4.60;99.90;;;;;;2089303;28;20067;-72
2022/01/19 02:54:52;;;;;;;21.40;14.68;;;4.60;99.90;;;;;;2089408;28;20029;-76
2022/01/19 02:55:53;;;;;;;21.92;14.57;;;4.60;99.90;;;;;;2088843;28;20503;-72
2022/01/19 02:56:58;;;;;;;22.30;14.50;;;4.60;99.90;;;;;;2081025;28;20586;-72
2022/01/19 02:57:59;;;;;;;22.55;15.38;;;4.60;99.90;;;;;;2089806;28;20033;-71
2022/01/19 02:59:13;;;;;;;24.58;16.02;;;4.60;99.90;;;;;;2089460;28;20160;-72
2022/01/19 03:09:16;;;;;;;26.33;15.50;;;4.60;99.90;;;;;;2091860;28;20029;-72
2022/01/19 03:10:17;;;;;;;26.67;15.27;;;4.60;99.90;;;;;;2089281;28;20067;-72
2022/01/19 03:11:20;;;;;;;28.02;15.68;;;4.60;99.90;;;;;;2080973;28;20029;-72
2022/01/19 03:12:21;;;;;;;28.60;15.50;;;4.60;99.90;;;;;;2081019;28;20459;-72
2022/01/19 03:13:23;;;;;;;27.60;15.68;;;4.60;99.90;;;;;;2089398;28;20036;-73
2022/01/19 03:14:23;;;;;;;29.90;16.40;;;4.60;99.90;;;;;;2089707;28;20033;-72
2022/01/19 03:15:24;;;;;;;32.75;16.80;;;4.60;99.90;;;;;;2100951;28;20134;-72
2022/01/19 03:16:26;;;;;;;31.08;16.45;;;4.50;99.90;;;;;;2085920;28;20025;-72
2022/01/19 03:17:27;;;;;;;35.00;17.23;;;4.60;99.90;;;;;;2094596;28;20029;-72
2022/01/19 03:18:27;;;;;;;32.65;17.48;;;4.50;99.90;;;;;;2094973;28;20075;-72
2022/01/19 03:19:30;;;;;;;35.10;17.65;;;4.60;99.90;;;;;;2095494;28;20036;-73
2022/01/19 03:20:31;;;;;;;34.15;17.42;;;4.50;99.90;;;;;;2087272;28;20028;-72
2022/01/19 03:21:32;;;;;;;33.10;17.80;;;4.50;99.90;;;;;;2087849;28;20469;-72
2022/01/19 03:22:39;;;;;;;32.97;17.27;;;4.50;99.90;;;;;;2095833;28;20051;-73
2022/01/19 03:23:40;;;;;;;32.97;16.75;;;4.50;99.90;;;;;;2095548;28;20036;-71
2022/01/19 03:24:49;;;;;;;35.70;17.38;;;4.50;99.90;;;;;;2096014;28;20342;-73
2022/01/19 03:25:53;;;;;;;35.53;17.63;;;4.50;99.90;;;;;;2096068;28;20289;-73
2022/01/19 03:26:54;;;;;;;35.28;17.60;;;4.50;99.90;;;;;;2096495;28;20036;-72
2022/01/19 03:28:05;;;;;;;34.63;18.17;;;4.50;99.90;;;;;;2096936;28;20056;-72
2022/01/19 03:29:06;;;;;;;34.65;17.33;;;4.50;99.90;;;;;;2088994;28;20053;-73
2022/01/19 03:30:08;;;;;;;33.90;18.00;;;4.50;99.90;;;;;;2088196;28;20036;-73
2022/01/19 03:31:09;;;;;;;30.30;17.48;;;4.40;99.90;;;;;;2095269;28;20464;-72
2022/01/19 03:32:10;;;;;;;32.42;17.92;;;4.40;99.90;;;;;;2083876;28;20040;-71
2022/01/19 03:33:11;;;;;;;28.75;17.90;;;4.40;99.90;;;;;;2082539;28;20029;-71
2022/01/19 03:34:12;;;;;;;27.35;16.90;;;4.40;99.90;;;;;;2089550;28;20036;-72
2022/01/19 03:35:15;;;;;;;31.27;18.88;;;4.40;99.90;;;;;;2081505;28;20044;-72
2022/01/19 03:36:17;;;;;;;28.27;17.70;;;4.40;99.90;;;;;;2081247;28;20033;-71
2022/01/19 03:37:18;;;;;;;26.75;17.35;;;4.30;99.90;;;;;;2081073;28;20029;-72
2022/01/19 03:38:19;;;;;;;28.08;17.75;;;4.30;99.90;;;;;;2080845;28;20538;-71
2022/01/19 03:39:19;;;;;;;28.00;17.55;;;4.30;99.90;;;;;;2080858;28;20033;-71
2022/01/19 03:40:22;;;;;;;23.90;16.48;;;4.30;99.90;;;;;;2080859;28;20420;-72
2022/01/19 03:41:23;;;;;;;27.42;17.45;;;4.30;99.90;;;;;;2080852;28;20394;-72
2022/01/19 03:42:23;;;;;;;24.67;16.33;;;4.30;99.90;;;;;;2089063;28;20100;-71
2022/01/19 03:43:24;;;;;;;27.13;17.58;;;4.30;99.90;;;;;;2089130;28;20614;-71
2022/01/19 03:44:40;;;;;;;26.75;16.45;;;4.30;99.90;;;;;;2089168;28;20476;-71
2022/01/19 03:45:50;;;;;;;25.33;16.67;;;4.20;99.90;;;;;;2088978;28;20048;-71
2022/01/19 03:46:56;;;;;;;26.58;17.05;;;4.20;99.90;;;;;;2097432;28;20056;-71
2022/01/19 03:49:23;;;;;;;25.77;16.33;;;4.20;99.90;;;;;;2083335;28;20116;-73
2022/01/19 03:50:24;;;;;;;28.50;17.10;;;4.10;99.90;;;;;;2073796;28;20582;-71
2022/01/19 03:51:25;;;;;;;25.73;15.75;;;4.10;99.90;;;;;;2080814;28;20060;-72
2022/01/19 03:52:27;;;;;;;22.15;14.82;;;4.10;99.90;;;;;;2097324;28;20046;-71
2022/01/19 03:53:28;;;;;;;21.38;15.20;;;4.00;99.90;;;;;;2089073;28;20083;-72
2022/01/19 03:54:31;;;;;;;22.60;15.30;;;4.00;99.90;;;;;;2082401;28;20535;-71
2022/01/19 03:55:32;;;;;;;22.98;15.23;;;4.00;99.90;;;;;;2086978;28;20071;-71
2022/01/19 03:56:32;;;;;;;22.52;15.25;;;3.90;99.90;;;;;;2075340;28;20034;-71
2022/01/19 03:57:34;;;;;;;22.08;15.02;;;3.90;99.90;;;;;;2083599;28;20064;-71
2022/01/19 03:58:36;;;;;;;23.67;15.93;;;3.80;99.90;;;;;;2075656;28;20452;-72
2022/01/19 03:59:38;;;;;;;24.42;15.40;;;3.70;99.90;;;;;;2075177;28;20030;-70
2022/01/19 04:00:42;;;;;;;24.88;15.27;;;3.70;99.90;;;;;;2082033;28;20028;-71
2022/01/19 04:01:43;;;;;;;24.42;15.35;;;3.70;99.90;;;;;;2088793;28;20033;-71
2022/01/19 04:02:44;;;;;;;24.30;15.38;;;3.60;99.90;;;;;;2089046;28;20090;-71
2022/01/19 04:05:02;;;;;;;26.08;15.07;;;3.50;99.90;;;;;;2088958;28;20040;-72
2022/01/19 04:07:39;;;;;;;20.42;13.52;;;3.40;99.90;;;;;;2071951;28;20062;-73
2022/01/19 04:08:39;;;;;;;22.25;13.70;;;3.40;99.90;;;;;;2064101;28;20085;-71
2022/01/19 04:09:45;;;;;;;22.08;14.38;;;3.30;99.90;;;;;;2065206;28;20034;-71
2022/01/19 04:10:46;;;;;;;20.50;13.43;;;3.30;99.90;;;;;;2081424;28;20029;-71
2022/01/19 04:11:47;;;;;;;20.83;13.63;;;3.20;99.90;;;;;;2080340;28;20052;-70
2022/01/19 04:13:07;;;;;;;21.35;13.90;;;3.20;99.90;;;;;;2088889;28;20040;-72
2022/01/19 04:14:25;;;;;;;21.25;13.35;;;3.20;99.90;;;;;;2088779;28;20029;-71
2022/01/19 04:15:27;;;;;;;22.02;13.95;;;3.10;99.90;;;;;;2074815;28;20029;-72
2022/01/19 04:16:28;;;;;;;20.73;13.63;;;3.10;99.90;;;;;;2080143;28;20033;-71
2022/01/19 04:17:28;;;;;;;23.70;14.35;;;3.10;99.90;;;;;;2097111;28;20119;-73
2022/01/19 04:18:29;;;;;;;22.95;13.60;;;3.10;99.90;;;;;;2096916;28;20031;-73
2022/01/19 04:19:33;;;;;;;22.23;14.02;;;3.00;99.90;;;;;;2088519;28;20103;-73
2022/01/19 04:20:41;;;;;;;19.98;13.45;;;3.00;99.90;;;;;;2081388;28;20028;-72
2022/01/19 04:21:42;;;;;;;21.67;13.75;;;3.00;99.90;;;;;;2080794;28;20109;-73
2022/01/19 04:22:43;;;;;;;19.55;13.00;;;2.90;99.90;;;;;;2080981;28;20732;-73
2022/01/19 04:23:45;;;;;;;20.35;13.25;;;2.90;99.90;;;;;;2072801;28;20037;-73
2022/01/19 04:24:47;;;;;;;20.20;13.05;;;2.90;99.90;;;;;;2080896;28;20041;-72
2022/01/19 04:25:48;;;;;;;22.20;13.70;;;2.90;99.90;;;;;;2088415;28;20019;-72
2022/01/19 04:28:09;;;;;;;20.65;13.55;;;2.80;99.90;;;;;;2091419;28;20025;-72
2022/01/19 04:29:14;;;;;;;19.48;12.95;;;2.80;99.90;;;;;;2088809;28;20052;-72
2022/01/19 04:30:15;;;;;;;20.92;13.55;;;2.80;99.90;;;;;;2088645;28;20029;-72
2022/01/19 04:31:28;;;;;;;20.20;13.32;;;2.80;99.90;;;;;;2090159;28;20036;-72
2022/01/19 04:32:38;;;;;;;20.80;13.10;;;2.70;99.90;;;;;;2080235;28;20017;-72
2022/01/19 04:33:43;;;;;;;19.85;12.73;;;2.70;99.90;;;;;;2082698;28;20026;-71
2022/01/19 04:34:46;;;;;;;19.23;12.57;;;2.70;99.90;;;;;;2088661;28;20123;-73
2022/01/19 04:35:52;;;;;;;19.17;13.00;;;2.70;99.90;;;;;;2088391;28;20036;-71
2022/01/19 04:43:47;;;;;;;20.88;13.50;;;2.70;99.90;;;;;;2088873;28;20060;-70
2022/01/19 04:44:55;;;;;;;20.33;12.70;;;2.60;99.90;;;;;;2083322;28;20676;-73
2022/01/19 04:46:10;;;;;;;19.60;12.57;;;2.60;99.90;;;;;;2084062;28;20520;-73
2022/01/19 05:02:14;;;;;;;19.48;12.40;;;2.40;99.90;;;;;;2094677;28;20041;-71
2022/01/19 05:04:04;;;;;;;20.98;13.10;;;2.30;99.90;;;;;;2097392;28;20495;-70
2022/01/19 05:05:15;;;;;;;21.17;13.40;;;2.30;99.90;;;;;;2088483;28;20047;-71
2022/01/19 05:06:19;;;;;;;21.23;13.63;;;2.30;99.90;;;;;;2081341;28;20095;-72
2022/01/19 05:07:33;;;;;;;20.05;13.02;;;2.30;99.90;;;;;;2080942;28;20025;-70
2022/01/19 05:13:36;;;;;;;23.75;15.57;;;2.20;99.90;;;;;;2097259;28;20090;-71
2022/01/19 05:14:37;;;;;;;25.10;15.73;;;2.20;99.90;;;;;;2080855;28;20671;-72
2022/01/19 05:15:38;;;;;;;24.92;16.08;;;2.20;99.90;;;;;;2080967;28;20026;-71
2022/01/19 05:16:42;;;;;;;26.02;16.10;;;2.20;99.90;;;;;;2097278;28;20029;-71
2022/01/19 05:17:43;;;;;;;25.63;16.33;;;2.20;99.90;;;;;;2088993;28;20025;-71
2022/01/19 05:18:47;;;;;;;26.27;16.30;;;2.20;99.90;;;;;;2080958;28;20026;-72
2022/01/19 05:19:50;;;;;;;27.08;16.65;;;2.20;99.90;;;;;;2081381;28;20032;-72
2022/01/19 05:20:51;;;;;;;27.50;17.08;;;2.20;99.90;;;;;;2089244;28;20052;-71
2022/01/19 05:22:21;;;;;;;28.05;16.20;;;2.20;99.90;;;;;;2084541;28;20392;-71
2022/01/19 05:23:32;;;;;;;28.17;16.92;;;2.20;99.90;;;;;;2077998;28;20483;-72
2022/01/19 05:24:33;;;;;;;28.00;15.82;;;2.20;99.90;;;;;;2082822;28;20107;-71
2022/01/19 05:25:45;;;;;;;26.80;16.38;;;2.20;99.90;;;;;;2080317;28;20139;-72
2022/01/19 05:26:53;;;;;;;26.80;15.82;;;2.20;99.90;;;;;;2084094;28;20511;-71
2022/01/19 05:28:04;;;;;;;24.90;15.45;;;2.10;99.90;;;;;;2089041;28;20029;-71
2022/01/19 05:29:10;;;;;;;24.40;15.20;;;2.10;99.90;;;;;;2078588;28;20041;-71
2022/01/19 05:30:15;;;;;;;25.63;15.73;;;2.10;99.90;;;;;;2074317;28;20079;-70
2022/01/19 05:31:15;;;;;;;25.65;15.70;;;2.10;99.90;;;;;;2081302;28;20030;-71
2022/01/19 05:32:24;;;;;;;24.83;15.45;;;2.10;99.90;;;;;;2080443;28;20025;-71
2022/01/19 05:33:28;;;;;;;25.30;15.60;;;2.10;99.90;;;;;;2081494;28;20148;-71
2022/01/19 05:34:32;;;;;;;24.27;15.25;;;2.00;99.90;;;;;;2088830;28;20021;-70
2022/01/19 05:35:41;;;;;;;24.83;14.73;;;2.00;99.90;;;;;;2088755;28;20052;-70
2022/01/19 05:37:25;;;;;;;25.95;14.90;;;2.00;99.90;;;;;;2067047;28;20030;-71
2022/01/19 05:38:49;;;;;;;24.00;14.40;;;2.00;99.90;;;;;;2074277;28;20491;-71
2022/01/19 05:40:14;;;;;;;24.10;14.75;;;1.90;99.90;;;;;;2086000;28;20045;-71
2022/01/19 05:41:21;;;;;;;23.67;14.73;;;1.90;99.90;;;;;;2083734;28;20048;-72
2022/01/19 05:42:32;;;;;;;24.92;15.35;;;1.90;99.90;;;;;;2071944;28;20037;-70
2022/01/19 05:43:33;;;;;;;;;;;1.90;99.90;;;;;;2075040;28;20030;-71
2022/01/19 05:44:37;;;;;;;24.35;14.52;;;1.90;99.90;;;;;;2080016;28;20008;-72
2022/01/19 05:45:49;;;;;;;25.08;15.02;;;1.80;99.90;;;;;;2072721;28;20042;-71
2022/01/19 05:46:53;;;;;;;25.45;15.75;;;1.80;99.90;;;;;;2083764;28;20497;-72
2022/01/19 05:47:54;;;;;;;27.75;16.35;;;1.80;99.90;;;;;;2079745;28;20145;-71
2022/01/19 05:49:04;;;;;;;28.02;16.50;;;1.90;99.90;;;;;;2066444;28;20019;-72
2022/01/19 05:50:05;;;;;;;28.55;16.58;;;1.80;99.90;;;;;;2073077;28;20038;-71
2022/01/19 05:51:07;;;;;;;28.55;17.42;;;1.80;99.90;;;;;;2088148;28;20017;-73
2022/01/19 05:52:10;;;;;;;26.75;16.42;;;1.80;99.90;;;;;;2079787;28;20112;-73
2022/01/19 05:53:11;;;;;;;28.25;17.23;;;1.80;99.90;;;;;;2088072;28;20021;-73
2022/01/19 05:54:12;;;;;;;27.52;16.27;;;1.80;99.90;;;;;;2088195;28;20472;-74
2022/01/19 05:55:12;;;;;;;28.42;16.95;;;1.80;99.90;;;;;;2079911;28;20022;-72
2022/01/19 05:56:13;;;;;;;28.38;16.90;;;1.80;99.90;;;;;;2071270;28;20104;-72
2022/01/19 05:57:27;;;;;;;28.85;16.95;;;1.80;99.90;;;;;;2075280;28;20505;-72
2022/01/19 05:58:27;;;;;;;28.55;17.60;;;1.80;99.90;;;;;;2088317;28;20082;-75
2022/01/19 05:59:32;;;;;;;28.83;16.92;;;1.80;99.90;;;;;;2080321;28;20079;-73
2022/01/19 06:00:36;;;;;;;28.85;17.52;;;1.70;99.90;;;;;;2072009;28;20038;-72
2022/01/19 06:01:36;;;;;;;28.70;16.88;;;1.70;99.90;;;;;;2080373;28;20095;-72
2022/01/19 06:02:37;;;;;;;29.17;16.92;;;1.70;99.90;;;;;;2080195;28;20025;-72
2022/01/19 06:03:38;;;;;;;29.75;17.17;;;1.70;99.90;;;;;;2079644;28;20040;-72
2022/01/19 06:04:57;;;;;;;29.00;17.05;;;1.70;99.90;;;;;;2097213;28;20024;-72
2022/01/19 06:06:21;;;;;;;29.77;17.13;;;1.70;99.90;;;;;;2087271;28;20040;-73
2022/01/19 06:07:49;;;;;;;30.13;17.45;;;1.70;99.90;;;;;;2088143;28;20025;-72
2022/01/19 06:09:01;;;;;;;30.17;17.48;;;1.70;99.90;;;;;;2081280;28;20026;-72
2022/01/19 06:10:05;;;;;;;29.70;17.50;;;1.60;99.90;;;;;;2081526;28;20022;-72
2022/01/19 06:11:13;;;;;;;28.92;16.80;;;1.60;99.90;;;;;;2073560;28;20084;-71
2022/01/19 06:12:16;;;;;;;28.63;17.67;;;1.60;99.90;;;;;;2081003;28;20061;-73
2022/01/19 06:13:18;;;;;;;29.15;16.88;;;1.60;99.90;;;;;;2081741;28;20056;-71
2022/01/19 06:14:19;;;;;;;29.95;17.60;;;1.60;99.90;;;;;;2089544;28;20112;-71
2022/01/19 06:15:22;;;;;;;29.55;17.45;;;1.60;99.90;;;;;;2089479;28;20041;-71
2022/01/19 06:16:23;;;;;;;29.60;17.52;;;1.60;99.90;;;;;;2089020;28;20047;-72
2022/01/19 06:17:24;;;;;;;30.48;17.40;;;1.60;99.90;;;;;;2089753;28;20112;-71
2022/01/19 06:18:25;;;;;;;30.30;17.80;;;1.60;99.90;;;;;;2081858;28;20025;-71
2022/01/19 06:19:26;;;;;;;28.95;17.40;;;1.60;99.90;;;;;;2081612;28;20025;-71
2022/01/19 06:20:27;;;;;;;28.40;17.45;;;1.60;99.90;;;;;;2074141;28;20040;-72
2022/01/19 06:21:28;;;;;;;28.13;16.98;;;1.50;99.90;;;;;;2073884;28;20428;-71
2022/01/19 06:22:30;;;;;;;30.88;17.75;;;1.50;99.90;;;;;;2082784;28;20025;-71
2022/01/19 06:23:34;;;;;;;30.60;17.83;;;1.50;99.90;;;;;;2083243;28;20024;-70
2022/01/19 06:24:40;;;;;;;31.38;18.38;;;1.50;99.90;;;;;;2091937;28;20033;-72
2022/01/19 06:25:44;;;;;;;31.17;18.20;;;1.50;99.90;;;;;;2082715;28;20036;-72
2022/01/19 06:26:48;;;;;;;32.15;18.25;;;1.50;99.90;;;;;;2067558;28;20027;-72
2022/01/19 06:27:50;;;;;;;30.30;17.75;;;1.50;99.90;;;;;;2083793;28;20117;-73
2022/01/19 06:28:54;;;;;;;30.60;17.38;;;1.50;99.90;;;;;;2084386;28;20116;-71
2022/01/19 06:29:55;;;;;;;29.88;17.92;;;1.40;99.90;;;;;;2083313;28;20029;-71
2022/01/19 06:30:59;;;;;;;31.40;18.55;;;1.40;99.90;;;;;;2091979;28;20029;-73
2022/01/19 06:32:00;;;;;;;31.63;18.45;;;1.50;99.90;;;;;;2075720;28;20037;-71
2022/01/19 06:33:01;;;;;;;34.20;19.27;;;1.40;99.90;;;;;;2067079;28;20035;-71
2022/01/19 06:34:02;;;;;;;32.22;18.40;;;1.40;99.90;;;;;;2074941;28;20026;-71
2022/01/19 06:35:20;;;;;;;30.20;17.58;;;1.40;99.90;;;;;;2085894;28;20033;-70
2022/01/19 06:36:51;;;;;;;30.98;17.75;;;1.40;99.90;;;;;;2071412;28;20654;-70
2022/01/19 06:38:16;;;;;;;32.05;18.30;;;1.40;99.90;;;;;;2086045;28;20086;-68
2022/01/19 06:39:27;;;;;;;34.13;19.08;;;1.40;99.90;;;;;;2084368;28;20029;-69
2022/01/19 06:40:38;;;;;;;46.33;34.13;;;1.40;99.90;;;;;;2068276;28;20038;-69
2022/01/19 06:41:42;;;;;;;45.63;32.10;;;1.30;99.90;;;;;;2075456;28;20040;-69
2022/01/19 06:42:44;;;;;;;49.38;35.35;;;1.30;99.90;;;;;;2083268;28;20032;-70
2022/01/19 06:43:45;;;;;;;45.33;30.40;;;1.30;99.90;;;;;;2082364;28;20022;-70
2022/01/19 06:44:46;;;;;;;43.88;28.55;;;1.30;99.90;;;;;;2082072;28;20531;-70
2022/01/19 06:45:47;;;;;;;38.67;25.25;;;1.30;99.90;;;;;;2073458;28;20022;-70